< Typhoon 201404 2014 Season Typhoon 201406 >
Typhoon 201405 (TAPAH)
General InformationTrack Information on Google MapsDetailed Wind InformationForecast History on Google MapsAccess Analytics MapList of All Images || NewsDisaster Info.WeblogTrackbackTyphoon FrontTwiphoonTyphoon Now!Typhoon ImaginationDisaster Info. XMLResourceGoogle EarthGE AnimationAtom FeedGeoJSON
Detalied Best Track (Time Zone = UTC)
Year Month Day Hour Lat. Long. Pressure (hPa) Wind (kt) Class Image Chart
2014 4 27 00 10.1 146.5 1008 0 2 Image Chart
2014 4 27 06 10.4 146.8 1006 0 2 Image Chart
2014 4 27 12 11.2 147.0 1006 0 2 Image Chart
2014 4 27 18 11.8 147.0 1004 0 2 Image Chart
2014 4 28 00 12.5 147.0 1002 35 3 Image Chart
2014 4 28 06 13.2 147.2 998 35 3 Image Chart
2014 4 28 12 14.0 147.4 994 40 3 Image Chart
2014 4 28 18 14.8 147.4 990 45 3 Image Chart
2014 4 29 00 15.6 147.3 985 50 4 Image Chart
2014 4 29 06 16.5 147.4 985 50 4 Image Chart
2014 4 29 12 17.2 147.5 985 50 4 Image Chart
2014 4 29 18 18.0 147.5 985 50 4 Image Chart
2014 4 30 00 18.7 147.4 985 50 4 Image Chart
2014 4 30 06 19.3 147.2 990 45 3 Image Chart
2014 4 30 12 19.8 146.8 996 40 3 Image Chart
2014 4 30 18 20.5 146.1 1002 35 3 Image Chart
2014 5 1 00 21.3 145.3 1006 0 2 Image Chart
2014 5 1 06 22.0 144.4 1008 0 2 Image Chart
2014 5 1 12 22.8 143.8 1008 0 2 Image Chart
2014 5 1 18 23.5 144.0 1008 0 2 Image Chart
2014 5 2 00 24.1 144.2 1010 0 2 Image Chart
2014 5 2 06 24.9 145.2 1012 0 2 Image Chart
Japan Meteorological Agency Best Track Data | Correction Date : 2014-05-21
< Typhoon 201404 2014 Season Typhoon 201406 >

Help